NCAR-RAP Real-Time Weather Data

Output produced by METARs form (12 August 2020  18:35 UTC)
found at http://weather.rap.ucar.edu/surface/
 
KDCA 121752Z 16006KT 10SM SCT045TCU SCT140 SCT250 32/24 A3000 RMK AO2 LTG DSNT N AND NE SLP160 TCU VC NE-SE CB DSNT NE AND DSNT S MOV N 60001 T03170244 10317 20244 58013
KDCA 121652Z 00000KT 10SM FEW038 FEW150 SCT250 31/24 A3003 RMK AO2 SLP168 CB DSNT S T03110244
KDCA 121552Z 14003KT 10SM FEW030 SCT150 SCT250 28/24 A3004 RMK AO2 SLP172 T02830244
KDCA 121452Z 17008KT 10SM FEW020 BKN140 BKN250 27/24 A3004 RMK AO2 SLP173 60001 T02670239 53008
KDCA 121352Z 16004KT 10SM FEW080 BKN140 BKN250 27/24 A3004 RMK AO2 SLP170 T02670239
KDCA 121252Z 07003KT 10SM FEW055 FEW080 BKN140 BKN250 26/23 A3002 RMK AO2 RAE20 SLP167 P0001 T02560233
KDCA 121227Z 34004KT 10SM FEW055 FEW080 BKN140 BKN250 25/23 A3002 RMK AO2 RAE20 P0001 T02500228
KDCA 121152Z 02003KT 10SM -RA FEW070 BKN110 BKN140 OVC250 24/23 A3002 RMK AO2 SLP165 P0005 60025 70025 T02440228 10272 20239 50010
KDCA 121137Z 00000KT 8SM -RA SCT080 BKN110 OVC250 24/22 A3002 RMK AO2 P0005 T02440222
KDCA 121052Z 30006KT 8SM -RA BKN110 BKN250 24/22 A3002 RMK AO2 SLP166 P0013 T02390217
KDCA 120952Z 29010G16KT 7SM -RA FEW120 BKN140 OVC250 24/22 A3001 RMK AO2 TSB08E52 SLP162 P0006 T02390217
KDCA 120909Z 26006KT 7SM -TSRA FEW065CB SCT110 BKN140 OVC250 25/22 A3000 RMK AO2 LTG DSNT NW TSB08 OCNL LTGICCC NW TS NW MOV SE P0001 T02500222
KDCA 120855Z 25007KT 10SM VCTS -RA FEW065 BKN140 OVC250 25/22 A2999 RMK AO2 LTG DSNT S-NW OCNL LTGIC DSNT SW CB DSNT SW MOV SE P0000 T02500222
KDCA 120852Z 27006KT 7SM -RA FEW065 BKN140 OVC250 25/22 A2999 RMK AO2 LTG DSNT SW AND W RAB29 SLP155 OCNL LTGIC DSNT SW CB DSNT SW MOV SE P0001 60001 T02500222 53004
KDCA 120752Z 20005KT 10SM FEW042 SCT065 BKN140 OVC250 27/24 A2998 RMK AO2 LTG DSNT SW AND W SLP151 OCNL LTGIC DSNT SW CB DSNT SW MOV E T02670239
KDCA 120701Z 20004KT 10SM FEW065 SCT120 BKN250 27/23 A2998 RMK AO2 LTG DSNT W AND NW OCNL LTGICCC DSNT W CB DSNT W MOV E T02670233
KDCA 120652Z 20004KT 10SM SCT120 BKN250 27/23 A2997 RMK AO2 LTG DSNT W AND NW SLP149 T02670233
KDCA 120552Z 20007KT 10SM FEW150 BKN250 27/23 A2998 RMK AO2 SLP151 T02720233 10306 20272 53006
KDCA 120452Z 18007KT 10SM SCT150 BKN250 28/24 A2997 RMK AO2 SLP149 T02780244 403280244
KDCA 120352Z 20005KT 10SM SCT150 BKN250 28/24 A2996 RMK AO2 SLP146 T02780244
KDCA 120252Z 19006KT 10SM FEW150 BKN250 28/24 A2996 RMK AO2 SLP144 T02830239 53010
KDCA 120152Z 19007KT 10SM FEW055 FEW150 29/24 A2995 RMK AO2 SLP142 T02890244
KDCA 120052Z COR 17006KT 10SM FEW049 SCT150 29/24 A2993 RMK AO2 SLP135 T02940244
KDCA 112352Z 18006KT 10SM FEW044 BKN140 31/24 A2993 RMK AO2 SLP134 T03060244 10328 20306 53003
KDCA 112252Z 17011KT 10SM SCT044 31/24 A2991 RMK AO2 SLP129 T03110239
KDCA 112152Z 19008KT 10SM BKN046 32/24 A2992 RMK AO2 SLP131 T03170239
KDCA 112052Z COR 20010KT 10SM BKN049 32/23 A2992 RMK AO2 SLP131 T03170228 55011
KDCA 111952Z 16010KT 10SM BKN045 32/24 A2992 RMK AO2 SLP131 T03220239
KDCA 111852Z 16010KT 10SM SCT045 SCT065 32/24 A2993 RMK AO2 SLP135 T03170244
KDCA 111752Z 17010KT 10SM SCT045 SCT250 32/24 A2995 RMK AO2 SLP143 T03170244 10317 20250 58014
KDCA 111652Z 16008KT 10SM FEW038 FEW250 31/24 A2997 RMK AO2 SLP149 T03110244
KDCA 111552Z 16007KT 10SM FEW032 FEW250 29/24 A2999 RMK AO2 SLP156 T02940244
KDCA 111452Z 17009KT 10SM FEW026 SCT250 28/24 A2999 RMK AO2 SLP157 T02830239 51010
KDCA 111352Z 17007KT 10SM FEW018 SCT250 27/24 A2998 RMK AO2 SLP152 T02720239
KDCA 111252Z 16006KT 10SM FEW011 SCT250 26/23 A2999 RMK AO2 SLP153 T02610233
KDCA 111159Z COR 18007KT 10SM FEW009 BKN250 26/23 A2997 RMK AO2 T02560233
KDCA 111152Z 17007KT 10SM BKN250 26/23 A2996 RMK AO2 SLP146 T02560233 10261 20244 51006
KDCA 111052Z 15005KT 10SM BKN250 25/23 A2996 RMK AO2 SLP146 T02500228 $
KDCA 110952Z 21005KT 10SM FEW024 BKN250 25/23 A2996 RMK AO2 SLP146 CB DSNT NE T02500228 $
KDCA 110852Z 19006KT 10SM FEW250 25/23 A2995 RMK AO2 SLP141 T02500233 56012 $
KDCA 110752Z 19005KT 10SM FEW250 26/23 A2996 RMK AO2 SLP143 T02560233 $
KDCA 110652Z 18005KT 10SM FEW250 26/24 A2997 RMK AO2 SLP149 T02560239 $
KDCA 110552Z 16004KT 10SM FEW024 SCT250 26/24 A2998 RMK AO2 SLP152 T02610239 10289 20261 58002 $
KDCA 110452Z 15003KT 10SM SCT250 26/24 A2999 RMK AO2 SLP156 T02610239 403330239 $
KDCA 110352Z 17009KT 10SM FEW095 BKN250 27/23 A2999 RMK AO2 SLP154 T02670233 $
KDCA 110252Z 17006KT 10SM FEW055 FEW095 SCT250 27/23 A2999 RMK AO2 SLP155 T02670233 53007 $
KDCA 110152Z 18007KT 10SM FEW050 FEW090 SCT250 28/23 A2998 RMK AO2 SLP153 T02780233 $
KDCA 110052Z 18007KT 10SM FEW046 FEW085 SCT250 28/23 A2997 RMK AO2 SLP149 T02830233 $
KDCA 102352Z 19010KT 10SM FEW041 FEW060 SCT085 SCT250 29/23 A2997 RMK AO2 SLP147 T02890233 10333 20289 55007 $
KDCA 102252Z 17010KT 10SM BKN041 BKN060 BKN080 BKN250 31/23 A2996 RMK AO2 SLP145 T03060228 $
KDCA 102152Z 17009KT 10SM FEW045CB SCT075 SCT150 BKN250 32/23 A2998 RMK AO2 SLP152 CB VC NW-N MOV NW VCSH NW T03170228 $
KDCA 102052Z 17013KT 10SM SCT045 BKN140 BKN250 31/23 A2999 RMK AO2 SLP154 T03110233 56015 $
KDCA 101952Z 17007KT 10SM FEW055TCU SCT130 SCT250 32/23 A3000 RMK AO2 SLP158 TCU VC ALQDS CB DSNT SW MOV N T03220228 $
KDCA 101852Z 17007KT 10SM SCT055TCU 33/22 A3001 RMK AO2 SLP162 TCU NW T03280222